createdAt,value
2019-02-09T00:00:03.788Z,0
2019-02-09T00:01:03.296Z,0
2019-02-09T00:02:03.810Z,0
2019-02-09T00:03:03.105Z,0
2019-02-09T00:04:02.888Z,0
2019-02-09T00:05:48.693Z,0
2019-02-09T00:06:03.327Z,0
2019-02-09T00:07:03.774Z,0
2019-02-09T00:08:03.379Z,0
2019-02-09T00:09:02.793Z,0
2019-02-09T00:10:03.351Z,0
2019-02-09T00:11:03.885Z,0
2019-02-09T00:12:03.079Z,0
2019-02-09T00:13:03.474Z,0
2019-02-09T00:14:03.327Z,0
2019-02-09T00:15:02.983Z,0
2019-02-09T00:16:03.630Z,0
2019-02-09T00:17:03.295Z,0
2019-02-09T00:18:03.397Z,0
2019-02-09T00:19:04.065Z,0
2019-02-09T00:20:03.333Z,0
2019-02-09T00:21:03.403Z,0
2019-02-09T00:22:03.154Z,0
2019-02-09T00:23:03.782Z,0
2019-02-09T00:24:03.442Z,0
2019-02-09T00:25:03.627Z,0
2019-02-09T00:26:03.258Z,0
2019-02-09T00:27:03.461Z,0
2019-02-09T00:28:03.661Z,0
2019-02-09T00:29:03.081Z,0
2019-02-09T00:30:03.769Z,0
2019-02-09T00:31:02.881Z,0
2019-02-09T00:32:03.516Z,0
2019-02-09T00:33:03.027Z,1.1
2019-02-09T00:34:03.186Z,0
2019-02-09T00:35:03.792Z,0
2019-02-09T00:36:03.121Z,0
2019-02-09T00:37:03.376Z,1.1
2019-02-09T00:38:03.400Z,5
2019-02-09T00:39:02.769Z,3.6
2019-02-09T00:40:03.587Z,0
2019-02-09T00:41:03.278Z,2.5
2019-02-09T00:42:03.414Z,1.1
2019-02-09T00:43:02.842Z,0
2019-02-09T00:44:03.025Z,0
2019-02-09T00:45:03.628Z,1.1
2019-02-09T00:46:03.757Z,0
2019-02-09T00:47:03.378Z,0
2019-02-09T00:48:03.861Z,2.5
2019-02-09T00:49:03.583Z,0
2019-02-09T00:50:03.749Z,0
2019-02-09T00:51:03.240Z,0
2019-02-09T00:52:03.459Z,2.5
2019-02-09T00:53:02.863Z,0
2019-02-09T00:54:03.253Z,0
2019-02-09T00:55:03.844Z,0
2019-02-09T00:56:03.718Z,0
2019-02-09T00:57:03.406Z,0
2019-02-09T00:58:03.677Z,0
2019-02-09T00:59:03.309Z,0
2019-02-09T01:00:03.534Z,0
2019-02-09T01:01:02.709Z,0
2019-02-09T01:02:03.120Z,0
2019-02-09T01:03:03.424Z,0
2019-02-09T01:04:02.698Z,0
2019-02-09T01:05:02.847Z,0
2019-02-09T01:06:03.967Z,0
2019-02-09T01:07:03.338Z,0
2019-02-09T01:08:03.829Z,0
2019-02-09T01:09:02.960Z,0
2019-02-09T01:10:03.588Z,0
2019-02-09T01:11:03.601Z,0
2019-02-09T01:12:03.585Z,0
2019-02-09T01:13:03.463Z,0
2019-02-09T01:14:03.084Z,0
2019-02-09T01:15:03.221Z,0
2019-02-09T01:16:03.662Z,0
2019-02-09T01:17:02.867Z,0
2019-02-09T01:18:03.678Z,0
2019-02-09T01:19:03.429Z,0
2019-02-09T01:20:03.261Z,0
2019-02-09T01:21:03.969Z,1.1
2019-02-09T01:22:03.255Z,0
2019-02-09T01:23:03.624Z,0
2019-02-09T01:24:03.497Z,0
2019-02-09T01:25:03.719Z,0
2019-02-09T01:26:03.007Z,0
2019-02-09T01:27:03.264Z,0
2019-02-09T01:28:03.734Z,1.1
2019-02-09T01:29:03.188Z,1.1
2019-02-09T01:30:03.629Z,0
2019-02-09T01:31:02.894Z,0
2019-02-09T01:32:03.571Z,0
2019-02-09T01:33:02.990Z,0
2019-02-09T01:34:03.380Z,0
2019-02-09T01:35:03.621Z,0
2019-02-09T01:36:03.206Z,0
2019-02-09T01:37:03.194Z,0
2019-02-09T01:38:03.054Z,1.1
2019-02-09T01:39:03.686Z,2.5
2019-02-09T01:40:03.620Z,0
2019-02-09T01:41:03.018Z,0
2019-02-09T01:42:03.402Z,0
2019-02-09T01:43:02.973Z,0
2019-02-09T01:44:03.683Z,0
2019-02-09T01:45:03.027Z,0
2019-02-09T01:46:03.613Z,2.5
2019-02-09T01:47:03.028Z,1.1
2019-02-09T01:48:03.601Z,0
2019-02-09T01:49:03.037Z,0
2019-02-09T01:50:03.782Z,0
2019-02-09T01:51:03.198Z,0
2019-02-09T01:52:03.669Z,0
2019-02-09T01:53:03.404Z,0
2019-02-09T01:54:03.832Z,0
2019-02-09T01:55:03.298Z,0
2019-02-09T01:56:03.057Z,0
2019-02-09T01:57:03.007Z,1.1
2019-02-09T01:58:02.864Z,0
2019-02-09T01:59:03.436Z,0
2019-02-09T02:00:11.149Z,0
2019-02-09T02:01:03.868Z,0
2019-02-09T02:02:03.550Z,0
2019-02-09T02:03:03.036Z,0
2019-02-09T02:04:03.722Z,0
2019-02-09T02:05:02.974Z,0
2019-02-09T02:06:03.739Z,0
2019-02-09T02:07:03.667Z,0
2019-02-09T02:08:03.561Z,2.5
2019-02-09T02:09:02.805Z,0
2019-02-09T02:10:03.385Z,0
2019-02-09T02:11:03.807Z,0
2019-02-09T02:12:02.897Z,0
2019-02-09T02:13:02.856Z,0
2019-02-09T02:14:03.064Z,0
2019-02-09T02:15:02.917Z,0
2019-02-09T02:16:03.460Z,0
2019-02-09T02:17:03.008Z,0
2019-02-09T02:18:03.442Z,0
2019-02-09T02:19:03.451Z,0
2019-02-09T02:20:03.320Z,0
2019-02-09T02:21:03.670Z,0
2019-02-09T02:22:03.383Z,0
2019-02-09T02:23:03.072Z,0
2019-02-09T02:24:03.398Z,0
2019-02-09T02:25:03.733Z,0
2019-02-09T02:26:03.169Z,0
2019-02-09T02:27:03.782Z,0
2019-02-09T02:28:03.355Z,0
2019-02-09T02:29:02.741Z,0
2019-02-09T02:30:03.803Z,0
2019-02-09T02:31:03.050Z,0
2019-02-09T02:32:03.396Z,0
2019-02-09T02:33:03.657Z,0
2019-02-09T02:34:03.427Z,0
2019-02-09T02:35:03.045Z,0
2019-02-09T02:36:03.662Z,0
2019-02-09T02:37:03.046Z,0
2019-02-09T02:38:03.447Z,0
2019-02-09T02:39:03.782Z,0
2019-02-09T02:40:03.448Z,0
2019-02-09T02:41:03.735Z,0
2019-02-09T02:42:03.357Z,0
2019-02-09T02:43:03.767Z,0
2019-02-09T02:44:03.302Z,0
2019-02-09T02:45:03.881Z,0
2019-02-09T02:46:03.246Z,0
2019-02-09T02:47:03.188Z,0
2019-02-09T02:48:03.350Z,0
2019-02-09T02:49:03.088Z,0
2019-02-09T02:50:03.577Z,0
2019-02-09T02:51:02.951Z,0
2019-02-09T02:52:03.557Z,0
2019-02-09T02:53:03.196Z,0
2019-02-09T02:54:03.468Z,0
2019-02-09T02:55:03.275Z,0
2019-02-09T02:56:03.704Z,0
2019-02-09T02:57:03.204Z,0
2019-02-09T02:58:03.851Z,0
2019-02-09T02:59:03.289Z,0
2019-02-09T03:00:03.275Z,0
2019-02-09T03:01:03.490Z,0
2019-02-09T03:02:03.763Z,0
2019-02-09T03:03:03.204Z,0
2019-02-09T03:04:03.692Z,0
2019-02-09T03:05:03.383Z,0
2019-02-09T03:06:02.949Z,0
2019-02-09T03:07:03.692Z,0
2019-02-09T03:08:03.293Z,0
2019-02-09T03:09:03.668Z,0
2019-02-09T03:10:03.066Z,0
2019-02-09T03:11:03.528Z,0
2019-02-09T03:12:03.016Z,0
2019-02-09T03:13:03.366Z,0
2019-02-09T03:14:03.253Z,0
2019-02-09T03:15:03.670Z,0
2019-02-09T03:16:03.660Z,0
2019-02-09T03:17:03.325Z,0
2019-02-09T03:18:03.020Z,0
2019-02-09T03:19:03.467Z,0
2019-02-09T03:20:03.153Z,0
2019-02-09T03:21:03.825Z,0
2019-02-09T03:22:03.670Z,0
2019-02-09T03:23:03.762Z,0
2019-02-09T03:24:03.062Z,0
2019-02-09T03:25:03.708Z,0
2019-02-09T03:26:02.973Z,0
2019-02-09T03:27:03.773Z,0
2019-02-09T03:28:03.093Z,0
2019-02-09T03:29:03.709Z,0
2019-02-09T03:30:03.357Z,0
2019-02-09T03:31:03.538Z,0
2019-02-09T03:32:03.275Z,0
2019-02-09T03:33:03.622Z,0
2019-02-09T03:34:02.955Z,0
2019-02-09T03:35:03.403Z,0
2019-02-09T03:36:02.865Z,0
2019-02-09T03:37:04.289Z,0
2019-02-09T03:38:02.982Z,0
2019-02-09T03:39:03.739Z,0
2019-02-09T03:40:03.210Z,0
2019-02-09T03:41:03.823Z,0
2019-02-09T03:42:03.266Z,0
2019-02-09T03:43:03.737Z,0
2019-02-09T03:44:03.249Z,0
2019-02-09T03:45:03.473Z,0
2019-02-09T03:46:02.867Z,0
2019-02-09T03:47:03.500Z,1.1
2019-02-09T03:48:03.118Z,0
2019-02-09T03:49:03.724Z,0
2019-02-09T03:50:03.222Z,0
2019-02-09T03:51:03.591Z,0
2019-02-09T03:52:02.976Z,0
2019-02-09T03:53:03.497Z,0
2019-02-09T03:54:03.036Z,0
2019-02-09T03:55:03.810Z,0
2019-02-09T03:56:03.358Z,0
2019-02-09T03:57:02.958Z,0
2019-02-09T03:58:03.350Z,0
2019-02-09T03:59:02.983Z,0
2019-02-09T04:00:03.546Z,0
2019-02-09T04:01:03.758Z,0
2019-02-09T04:02:03.643Z,0
2019-02-09T04:03:03.194Z,0
2019-02-09T04:04:03.397Z,0
2019-02-09T04:05:03.511Z,0
2019-02-09T04:06:02.947Z,0
2019-02-09T04:07:03.376Z,0
2019-02-09T04:08:03.719Z,0
2019-02-09T04:09:03.215Z,0
2019-02-09T04:10:02.833Z,0
2019-02-09T04:11:03.603Z,0
2019-02-09T04:12:03.169Z,0
2019-02-09T04:13:03.549Z,0
2019-02-09T04:14:02.759Z,0
2019-02-09T04:15:03.817Z,0
2019-02-09T04:16:03.729Z,0
2019-02-09T04:17:02.957Z,0
2019-02-09T04:18:03.618Z,0
2019-02-09T04:19:03.745Z,0
2019-02-09T04:20:03.134Z,0
2019-02-09T04:21:03.738Z,0
2019-02-09T04:22:03.267Z,0
2019-02-09T04:23:03.702Z,0
2019-02-09T04:24:03.246Z,0
2019-02-09T04:25:03.913Z,0
2019-02-09T04:26:03.199Z,0
2019-02-09T04:27:03.656Z,0
2019-02-09T04:28:03.229Z,0
2019-02-09T04:29:03.680Z,0
2019-02-09T04:30:03.417Z,0
2019-02-09T04:31:07.375Z,0
2019-02-09T04:32:03.057Z,0
2019-02-09T04:33:03.501Z,1.1
2019-02-09T04:34:03.623Z,0
2019-02-09T04:35:03.289Z,0
2019-02-09T04:36:03.385Z,0
2019-02-09T04:37:03.585Z,0
2019-02-09T04:38:03.121Z,0
2019-02-09T04:39:03.465Z,0
2019-02-09T04:40:02.953Z,0
2019-02-09T04:41:03.457Z,0
2019-02-09T04:42:03.779Z,0
2019-02-09T04:43:03.543Z,0
2019-02-09T04:44:03.892Z,0
2019-02-09T04:45:03.419Z,0
2019-02-09T04:46:02.788Z,0
2019-02-09T04:47:03.470Z,0
2019-02-09T04:48:03.849Z,0
2019-02-09T04:49:03.388Z,0
2019-02-09T04:50:02.828Z,0
2019-02-09T04:51:03.196Z,0
2019-02-09T04:52:03.871Z,0
2019-02-09T04:53:03.359Z,0
2019-02-09T04:54:03.933Z,0
2019-02-09T04:55:02.956Z,0
2019-02-09T04:56:03.728Z,0
2019-02-09T04:57:03.603Z,0
2019-02-09T04:58:03.474Z,0
2019-02-09T04:59:02.763Z,0
2019-02-09T05:00:03.747Z,0
2019-02-09T05:01:03.872Z,0
2019-02-09T05:02:03.503Z,0
2019-02-09T05:03:05.725Z,0
2019-02-09T05:04:03.340Z,0
2019-02-09T05:05:03.708Z,0
2019-02-09T05:06:03.312Z,0
2019-02-09T05:07:02.853Z,0
2019-02-09T05:08:03.505Z,0
2019-02-09T05:09:03.817Z,0
2019-02-09T05:10:03.210Z,0
2019-02-09T05:11:03.658Z,0
2019-02-09T05:12:02.914Z,0
2019-02-09T05:13:02.861Z,0
2019-02-09T05:14:03.540Z,0
2019-02-09T05:15:03.029Z,0
2019-02-09T05:16:03.364Z,0
2019-02-09T05:17:03.719Z,0
2019-02-09T05:18:03.640Z,0
2019-02-09T05:19:02.836Z,0
2019-02-09T05:20:03.708Z,0
2019-02-09T05:21:03.750Z,0
2019-02-09T05:22:03.150Z,0
2019-02-09T05:23:03.008Z,0
2019-02-09T05:24:03.138Z,1.1
2019-02-09T05:25:03.237Z,0
2019-02-09T05:26:03.349Z,0
2019-02-09T05:27:03.390Z,0
2019-02-09T05:28:03.217Z,0
2019-02-09T05:29:03.514Z,0
2019-02-09T05:30:02.955Z,0
2019-02-09T05:31:03.050Z,0
2019-02-09T05:32:04.214Z,0
2019-02-09T05:33:03.469Z,0
2019-02-09T05:34:02.944Z,0
2019-02-09T05:35:03.445Z,0
2019-02-09T05:36:03.133Z,0
2019-02-09T05:37:03.369Z,0
2019-02-09T05:38:03.207Z,0
2019-02-09T05:39:03.707Z,0
2019-02-09T05:40:03.238Z,0
2019-02-09T05:41:03.559Z,0
2019-02-09T05:42:03.349Z,0
2019-02-09T05:43:03.569Z,0
2019-02-09T05:44:03.175Z,0
2019-02-09T05:45:03.328Z,1.1
2019-02-09T05:46:03.049Z,0
2019-02-09T05:47:03.589Z,0
2019-02-09T05:48:02.749Z,0
2019-02-09T05:49:03.282Z,0
2019-02-09T05:50:03.134Z,1.1
2019-02-09T05:51:03.576Z,0
2019-02-09T05:52:02.916Z,0
2019-02-09T05:53:03.602Z,0
2019-02-09T05:54:02.894Z,0
2019-02-09T05:55:03.673Z,0
2019-02-09T05:56:03.102Z,0
2019-02-09T05:57:03.355Z,0
2019-02-09T05:58:03.050Z,0
2019-02-09T05:59:03.733Z,1.1
2019-02-09T06:00:03.387Z,0
2019-02-09T06:01:03.710Z,0
2019-02-09T06:02:03.278Z,0
2019-02-09T06:03:02.990Z,0
2019-02-09T06:04:03.469Z,0
2019-02-09T06:05:03.730Z,0
2019-02-09T06:06:03.204Z,0
2019-02-09T06:07:03.499Z,0
2019-02-09T06:08:03.247Z,0
2019-02-09T06:09:03.644Z,0
2019-02-09T06:10:03.313Z,0
2019-02-09T06:11:03.599Z,0
2019-02-09T06:12:02.964Z,0
2019-02-09T06:13:03.209Z,0
2019-02-09T06:14:03.771Z,0
2019-02-09T06:15:03.563Z,0
2019-02-09T06:16:03.856Z,0
2019-02-09T06:17:03.237Z,0
2019-02-09T06:18:03.459Z,0
2019-02-09T06:19:02.912Z,0
2019-02-09T06:20:03.391Z,0
2019-02-09T06:21:03.359Z,0
2019-02-09T06:22:03.390Z,0
2019-02-09T06:23:03.239Z,0
2019-02-09T06:24:03.342Z,0
2019-02-09T06:25:04.051Z,0
2019-02-09T06:26:04.137Z,0
2019-02-09T06:27:03.615Z,0
2019-02-09T06:28:03.373Z,0
2019-02-09T06:29:03.035Z,2.5
2019-02-09T06:30:03.156Z,2.5
2019-02-09T06:31:03.982Z,2.5
2019-02-09T06:32:03.186Z,2.5
2019-02-09T06:33:03.685Z,2.5
2019-02-09T06:34:03.185Z,3.6
2019-02-09T06:35:03.459Z,2.5
2019-02-09T06:36:03.174Z,2.5
2019-02-09T06:37:03.465Z,2.5
2019-02-09T06:38:03.073Z,2.5
2019-02-09T06:39:03.503Z,2.5
2019-02-09T06:40:03.873Z,2.5
2019-02-09T06:41:03.424Z,3.6
2019-02-09T06:42:02.984Z,1.1
2019-02-09T06:43:04.199Z,2.5
2019-02-09T06:44:03.043Z,2.5
2019-02-09T06:45:03.264Z,1.1
2019-02-09T06:46:03.397Z,1.1
2019-02-09T06:47:03.047Z,1.1
2019-02-09T06:48:03.447Z,1.1
2019-02-09T06:49:02.781Z,0
2019-02-09T06:50:03.121Z,1.1
2019-02-09T06:51:02.988Z,1.1
2019-02-09T06:52:03.202Z,0
2019-02-09T06:53:02.814Z,1.1
2019-02-09T06:54:03.564Z,0
2019-02-09T06:55:03.190Z,0
2019-02-09T06:56:03.269Z,0
2019-02-09T06:57:03.927Z,0
2019-02-09T06:58:03.352Z,0
2019-02-09T06:59:03.310Z,0
2019-02-09T07:00:03.576Z,0
2019-02-09T07:01:03.109Z,0
2019-02-09T07:02:03.328Z,0
2019-02-09T07:03:03.671Z,0
2019-02-09T07:04:03.338Z,0
2019-02-09T07:05:04.113Z,0
2019-02-09T07:06:02.875Z,0
2019-02-09T07:07:03.321Z,0
2019-02-09T07:08:02.857Z,0
2019-02-09T07:09:03.747Z,0
2019-02-09T07:10:03.852Z,0
2019-02-09T07:11:02.990Z,0
2019-02-09T07:12:03.864Z,0
2019-02-09T07:13:03.480Z,0
2019-02-09T07:14:02.992Z,0
2019-02-09T07:15:03.703Z,0
2019-02-09T07:16:03.094Z,0
2019-02-09T07:17:02.966Z,1.1
2019-02-09T07:18:03.138Z,1.1
2019-02-09T07:19:03.587Z,2.5
2019-02-09T07:20:03.423Z,1.1
2019-02-09T07:21:03.232Z,2.5
2019-02-09T07:22:03.844Z,2.5
2019-02-09T07:23:03.283Z,2.5
2019-02-09T07:24:02.966Z,2.5
2019-02-09T07:25:03.290Z,1.1
2019-02-09T07:26:03.557Z,1.1
2019-02-09T07:27:03.849Z,2.5
2019-02-09T07:28:03.043Z,2.5
2019-02-09T07:29:03.620Z,3.6
2019-02-09T07:30:03.231Z,3.6
2019-02-09T07:31:03.754Z,3.6
2019-02-09T07:32:03.687Z,5
2019-02-09T07:33:03.021Z,5
2019-02-09T07:34:03.430Z,5
2019-02-09T07:35:03.259Z,5
2019-02-09T07:36:03.830Z,3.6
2019-02-09T07:37:03.065Z,3.6
2019-02-09T07:38:03.571Z,5
2019-02-09T07:39:03.893Z,5
2019-02-09T07:40:03.211Z,5
2019-02-09T07:41:03.657Z,5
2019-02-09T07:42:03.483Z,5
2019-02-09T07:43:02.885Z,6.1
2019-02-09T07:44:03.318Z,5
2019-02-09T07:45:03.337Z,5
2019-02-09T07:46:03.379Z,5
2019-02-09T07:47:03.820Z,5
2019-02-09T07:48:03.269Z,6.1
2019-02-09T07:49:03.608Z,5
2019-02-09T07:50:03.037Z,5
2019-02-09T07:51:03.702Z,3.6
2019-02-09T07:52:03.139Z,3.6
2019-02-09T07:53:03.751Z,3.6
2019-02-09T07:54:03.322Z,3.6
2019-02-09T07:55:03.403Z,3.6
2019-02-09T07:56:03.682Z,3.6
2019-02-09T07:57:03.030Z,3.6
2019-02-09T07:58:03.505Z,3.6
2019-02-09T07:59:03.780Z,2.5
2019-02-09T08:00:03.850Z,2.5
2019-02-09T08:01:02.824Z,2.5
2019-02-09T08:02:05.227Z,2.5
2019-02-09T08:03:03.205Z,3.6
2019-02-09T08:04:03.653Z,3.6
2019-02-09T08:05:03.227Z,1.1
2019-02-09T08:06:03.379Z,1.1
2019-02-09T08:07:03.223Z,2.5
2019-02-09T08:08:03.118Z,2.5
2019-02-09T08:09:03.138Z,2.5
2019-02-09T08:10:03.658Z,1.1
2019-02-09T08:11:09.723Z,1.1
2019-02-09T08:12:03.265Z,2.5
2019-02-09T08:13:03.048Z,2.5
2019-02-09T08:14:03.527Z,5
2019-02-09T08:15:03.403Z,3.6
2019-02-09T08:16:03.906Z,3.6
2019-02-09T08:17:03.097Z,3.6
2019-02-09T08:18:03.459Z,6.1
2019-02-09T08:19:03.389Z,2.5
2019-02-09T08:20:03.539Z,5
2019-02-09T08:21:03.330Z,5
2019-02-09T08:22:03.894Z,5
2019-02-09T08:23:03.183Z,6.1
2019-02-09T08:24:03.547Z,6.1
2019-02-09T08:25:03.103Z,6.1
2019-02-09T08:26:03.574Z,6.1
2019-02-09T08:27:02.907Z,6.1
2019-02-09T08:28:03.452Z,6.1
2019-02-09T08:29:03.349Z,5
2019-02-09T08:30:03.866Z,6.1
2019-02-09T08:31:03.382Z,5
2019-02-09T08:32:03.942Z,5
2019-02-09T08:33:03.503Z,5
2019-02-09T08:34:03.164Z,6.1
2019-02-09T08:35:03.955Z,5
2019-02-09T08:36:03.383Z,5
2019-02-09T08:37:03.534Z,6.1
2019-02-09T08:38:03.023Z,6.1
2019-02-09T08:39:03.042Z,6.1
2019-02-09T08:40:03.242Z,6.1
2019-02-09T08:41:03.345Z,6.1
2019-02-09T08:42:03.007Z,6.1
2019-02-09T08:43:03.354Z,6.1
2019-02-09T08:44:03.142Z,6.1
2019-02-09T08:45:03.835Z,6.1
2019-02-09T08:46:03.482Z,6.1
2019-02-09T08:47:03.799Z,6.1
2019-02-09T08:48:03.216Z,5
2019-02-09T08:49:03.653Z,6.1
2019-02-09T08:50:03.646Z,7.2
2019-02-09T08:51:03.931Z,6.1
2019-02-09T08:52:03.202Z,6.1
2019-02-09T08:53:03.425Z,7.2
2019-02-09T08:54:02.989Z,7.2
2019-02-09T08:55:03.191Z,8.6
2019-02-09T08:56:03.906Z,8.6
2019-02-09T08:57:03.463Z,5
2019-02-09T08:58:03.163Z,8.6
2019-02-09T08:59:03.869Z,9.7
2019-02-09T09:00:03.334Z,8.6
2019-02-09T09:01:03.793Z,9.7
2019-02-09T09:02:03.501Z,9.7
2019-02-09T09:03:03.640Z,9.7
2019-02-09T09:04:03.498Z,9.7
2019-02-09T09:05:10.332Z,9.7
2019-02-09T09:06:03.432Z,9.7
2019-02-09T09:07:03.720Z,9.7
2019-02-09T09:08:02.978Z,9.7
2019-02-09T09:09:03.687Z,6.1
2019-02-09T09:10:03.201Z,7.2
2019-02-09T09:11:03.936Z,7.2
2019-02-09T09:12:03.443Z,6.1
2019-02-09T09:13:02.905Z,7.2
2019-02-09T09:14:03.686Z,5
2019-02-09T09:15:04.044Z,5
2019-02-09T09:16:03.200Z,6.1
2019-02-09T09:17:02.878Z,6.1
2019-02-09T09:18:03.348Z,5
2019-02-09T09:19:03.613Z,6.1
2019-02-09T09:20:03.047Z,7.2
2019-02-09T09:21:03.673Z,5
2019-02-09T09:22:03.162Z,5
2019-02-09T09:23:03.843Z,5
2019-02-09T09:24:03.454Z,6.1
2019-02-09T09:25:03.998Z,8.6
2019-02-09T09:26:03.567Z,8.6
2019-02-09T09:27:02.904Z,5
2019-02-09T09:28:03.561Z,5
2019-02-09T09:29:03.378Z,7.2
2019-02-09T09:30:02.988Z,6.1
2019-02-09T09:31:03.624Z,7.2
2019-02-09T09:32:03.875Z,7.2
2019-02-09T09:33:03.236Z,6.1
2019-02-09T09:34:02.922Z,7.2
2019-02-09T09:35:03.437Z,5
2019-02-09T09:36:03.184Z,12.2
2019-02-09T09:37:03.330Z,8.6
2019-02-09T09:38:02.943Z,8.6
2019-02-09T09:39:03.322Z,9.7
2019-02-09T09:40:03.135Z,6.1
2019-02-09T09:41:03.624Z,9.7
2019-02-09T09:42:03.166Z,11.2
2019-02-09T09:43:03.632Z,7.2
2019-02-09T09:44:03.042Z,9.7
2019-02-09T09:45:03.501Z,11.2
2019-02-09T09:46:03.818Z,9.7
2019-02-09T09:47:03.405Z,12.2
2019-02-09T09:48:03.411Z,9.7
2019-02-09T09:49:03.837Z,6.1
2019-02-09T09:50:03.850Z,8.6
2019-02-09T09:51:03.782Z,5
2019-02-09T09:52:03.526Z,11.2
2019-02-09T09:53:03.039Z,9.7
2019-02-09T09:54:03.754Z,11.2
2019-02-09T09:55:03.820Z,8.6
2019-02-09T09:56:03.830Z,9.7
2019-02-09T09:57:03.641Z,7.2
2019-02-09T09:58:02.742Z,9.7
2019-02-09T09:59:03.649Z,8.6
2019-02-09T10:00:03.242Z,7.2
2019-02-09T10:01:03.323Z,9.7
2019-02-09T10:02:03.964Z,8.6
2019-02-09T10:03:03.346Z,8.6
2019-02-09T10:04:03.563Z,8.6
2019-02-09T10:05:02.986Z,11.2
2019-02-09T10:06:03.210Z,7.2
2019-02-09T10:07:02.951Z,8.6
2019-02-09T10:08:03.656Z,12.2
2019-02-09T10:09:03.230Z,11.2
2019-02-09T10:10:03.510Z,7.2
2019-02-09T10:11:03.295Z,9.7
2019-02-09T10:12:03.707Z,7.2
2019-02-09T10:13:03.171Z,11.2
2019-02-09T10:14:09.414Z,11.2
2019-02-09T10:15:03.392Z,8.6
2019-02-09T10:16:02.920Z,8.6
2019-02-09T10:17:03.065Z,9.7
2019-02-09T10:18:03.644Z,9.7
2019-02-09T10:19:03.401Z,8.6
2019-02-09T10:20:04.032Z,7.2
2019-02-09T10:21:02.932Z,9.7
2019-02-09T10:22:03.854Z,12.2
2019-02-09T10:23:03.434Z,11.2
2019-02-09T10:24:03.211Z,11.2
2019-02-09T10:25:03.603Z,8.6
2019-02-09T10:26:03.441Z,11.2
2019-02-09T10:27:03.430Z,8.6
2019-02-09T10:28:03.790Z,8.6
2019-02-09T10:29:03.359Z,9.7
2019-02-09T10:30:03.067Z,12.2
2019-02-09T10:31:03.298Z,8.6
2019-02-09T10:32:03.464Z,8.6
2019-02-09T10:33:03.973Z,7.2
2019-02-09T10:34:02.947Z,9.7
2019-02-09T10:35:03.905Z,7.2
2019-02-09T10:36:03.268Z,12.2
2019-02-09T10:37:03.269Z,9.7
2019-02-09T10:38:02.933Z,9.7
2019-02-09T10:39:03.224Z,11.2
2019-02-09T10:40:03.688Z,8.6
2019-02-09T10:41:03.022Z,13.3
2019-02-09T10:42:03.268Z,13.3
2019-02-09T10:43:03.143Z,12.2
2019-02-09T10:44:03.622Z,9.7
2019-02-09T10:45:02.886Z,11.2
2019-02-09T10:46:03.684Z,11.2
2019-02-09T10:47:03.207Z,12.2
2019-02-09T10:48:03.943Z,11.2
2019-02-09T10:49:03.420Z,13.3
2019-02-09T10:50:03.729Z,12.2
2019-02-09T10:51:03.381Z,14.8
2019-02-09T10:52:03.691Z,17.3
2019-02-09T10:53:03.130Z,11.2
2019-02-09T10:54:03.338Z,11.2
2019-02-09T10:55:03.264Z,13.3
2019-02-09T10:56:03.380Z,11.2
2019-02-09T10:57:03.517Z,9.7
2019-02-09T10:58:03.522Z,11.2
2019-02-09T10:59:03.379Z,8.6
2019-02-09T11:00:03.106Z,12.2
2019-02-09T11:01:03.654Z,12.2
2019-02-09T11:02:03.252Z,12.2
2019-02-09T11:03:03.827Z,12.2
2019-02-09T11:04:03.019Z,12.2
2019-02-09T11:05:03.712Z,12.2
2019-02-09T11:06:03.286Z,12.2
2019-02-09T11:07:03.751Z,12.2
2019-02-09T11:08:03.344Z,12.2
2019-02-09T11:09:03.630Z,14.8
2019-02-09T11:10:03.080Z,14.8
2019-02-09T11:11:02.964Z,11.2
2019-02-09T11:12:03.378Z,11.2
2019-02-09T11:13:03.811Z,13.3
2019-02-09T11:14:03.712Z,15.8
2019-02-09T11:15:03.253Z,14.8
2019-02-09T11:16:03.715Z,12.2
2019-02-09T11:17:03.127Z,15.8
2019-02-09T11:18:03.695Z,12.2
2019-02-09T11:19:03.228Z,15.8
2019-02-09T11:20:03.784Z,13.3
2019-02-09T11:21:03.239Z,13.3
2019-02-09T11:22:03.570Z,15.8
2019-02-09T11:23:03.125Z,15.8
2019-02-09T11:24:03.535Z,18.4
2019-02-09T11:25:03.174Z,12.2
2019-02-09T11:26:03.948Z,9.7
2019-02-09T11:27:03.340Z,13.3
2019-02-09T11:28:02.953Z,12.2
2019-02-09T11:29:03.742Z,11.2
2019-02-09T11:30:03.008Z,12.2
2019-02-09T11:31:03.614Z,8.6
2019-02-09T11:32:03.422Z,14.8
2019-02-09T11:33:03.677Z,12.2
2019-02-09T11:34:03.404Z,7.2
2019-02-09T11:35:03.726Z,14.8
2019-02-09T11:36:03.080Z,11.2
2019-02-09T11:37:03.468Z,12.2
2019-02-09T11:38:03.312Z,11.2
2019-02-09T11:39:03.253Z,11.2
2019-02-09T11:40:03.623Z,12.2
2019-02-09T11:41:03.155Z,12.2
2019-02-09T11:42:03.554Z,9.7
2019-02-09T11:43:03.269Z,9.7
2019-02-09T11:44:03.431Z,8.6
2019-02-09T11:45:03.299Z,7.2
2019-02-09T11:46:03.519Z,8.6
2019-02-09T11:47:03.724Z,5
2019-02-09T11:48:03.072Z,5
2019-02-09T11:49:03.658Z,11.2
2019-02-09T11:50:03.028Z,9.7
2019-02-09T11:51:02.919Z,6.1
2019-02-09T11:52:03.753Z,9.7
2019-02-09T11:53:03.943Z,13.3
2019-02-09T11:54:03.480Z,12.2
2019-02-09T11:55:04.208Z,11.2
2019-02-09T11:56:03.358Z,12.2
2019-02-09T11:57:03.597Z,14.8
2019-02-09T11:58:02.967Z,14.8
2019-02-09T11:59:03.465Z,11.2
2019-02-09T12:00:03.600Z,12.2
2019-02-09T12:01:03.280Z,13.3
2019-02-09T12:02:03.032Z,12.2
2019-02-09T12:03:16.718Z,14.8
2019-02-09T12:04:03.074Z,13.3
2019-02-09T12:05:03.379Z,9.7
2019-02-09T12:06:02.995Z,11.2
2019-02-09T12:07:03.328Z,13.3
2019-02-09T12:08:03.024Z,9.7
2019-02-09T12:09:03.323Z,11.2
2019-02-09T12:10:03.476Z,9.7
2019-02-09T12:11:03.586Z,9.7
2019-02-09T12:12:02.866Z,9.7
2019-02-09T12:13:03.095Z,9.7
2019-02-09T12:14:03.633Z,8.6
2019-02-09T12:15:03.705Z,8.6
2019-02-09T12:16:02.879Z,8.6
2019-02-09T12:17:03.309Z,7.2
2019-02-09T12:18:03.888Z,7.2
2019-02-09T12:19:03.388Z,7.2
2019-02-09T12:20:03.464Z,7.2
2019-02-09T12:21:03.230Z,8.6
2019-02-09T12:22:03.346Z,8.6
2019-02-09T12:23:03.930Z,6.1
2019-02-09T12:24:03.343Z,5
2019-02-09T12:25:03.880Z,7.2
2019-02-09T12:26:03.097Z,7.2
2019-02-09T12:27:03.745Z,7.2
2019-02-09T12:28:03.751Z,6.1
2019-02-09T12:29:02.996Z,6.1
2019-02-09T12:30:02.967Z,6.1
2019-02-09T12:31:02.909Z,7.2
2019-02-09T12:32:03.539Z,6.1
2019-02-09T12:33:03.848Z,6.1
2019-02-09T12:34:03.537Z,7.2
2019-02-09T12:35:03.966Z,7.2
2019-02-09T12:36:03.040Z,8.6
2019-02-09T12:37:03.469Z,7.2
2019-02-09T12:38:03.453Z,7.2
2019-02-09T12:39:03.778Z,7.2
2019-02-09T12:40:03.403Z,7.2
2019-02-09T12:41:03.063Z,5
2019-02-09T12:42:03.279Z,6.1
2019-02-09T12:43:02.672Z,6.1
2019-02-09T12:44:04.067Z,7.2
2019-02-09T12:45:03.607Z,7.2
2019-02-09T12:46:02.862Z,7.2
2019-02-09T12:47:03.881Z,8.6
2019-02-09T12:48:03.018Z,7.2
2019-02-09T12:49:03.540Z,8.6
2019-02-09T12:50:03.179Z,9.7
2019-02-09T12:51:03.114Z,8.6
2019-02-09T12:52:03.007Z,7.2
2019-02-09T12:53:03.358Z,11.2
2019-02-09T12:54:03.836Z,9.7
2019-02-09T12:55:03.204Z,8.6
2019-02-09T12:56:03.613Z,11.2
2019-02-09T12:57:03.647Z,11.2
2019-02-09T12:58:03.818Z,14.8
2019-02-09T12:59:03.184Z,12.2
2019-02-09T13:00:03.360Z,11.2
2019-02-09T13:01:03.735Z,12.2
2019-02-09T13:02:03.479Z,12.2
2019-02-09T13:03:03.236Z,12.2
2019-02-09T13:04:02.978Z,12.2
2019-02-09T13:05:03.358Z,12.2
2019-02-09T13:06:03.108Z,12.2
2019-02-09T13:07:03.051Z,12.2
2019-02-09T13:08:03.512Z,12.2
2019-02-09T13:09:03.250Z,11.2
2019-02-09T13:10:03.390Z,13.3
2019-02-09T13:11:03.706Z,11.2
2019-02-09T13:12:03.404Z,9.7
2019-02-09T13:13:03.895Z,11.2
2019-02-09T13:14:03.371Z,9.7
2019-02-09T13:15:03.685Z,11.2
2019-02-09T13:16:03.977Z,9.7
2019-02-09T13:17:03.586Z,8.6
2019-02-09T13:18:03.769Z,9.7
2019-02-09T13:19:03.523Z,9.7
2019-02-09T13:20:02.960Z,9.7
2019-02-09T13:21:03.492Z,8.6
2019-02-09T13:22:03.453Z,12.2
2019-02-09T13:23:03.645Z,13.3
2019-02-09T13:24:03.063Z,11.2
2019-02-09T13:25:03.514Z,9.7
2019-02-09T13:26:03.899Z,7.2
2019-02-09T13:27:02.762Z,9.7
2019-02-09T13:28:02.761Z,9.7
2019-02-09T13:29:03.264Z,9.7
2019-02-09T13:30:02.888Z,9.7
2019-02-09T13:31:03.437Z,7.2
2019-02-09T13:32:03.079Z,8.6
2019-02-09T13:33:03.261Z,7.2
2019-02-09T13:34:03.102Z,7.2
2019-02-09T13:35:03.088Z,5
2019-02-09T13:36:03.388Z,3.6
2019-02-09T13:37:02.978Z,9.7
2019-02-09T13:38:03.091Z,6.1
2019-02-09T13:39:03.728Z,6.1
2019-02-09T13:40:04.144Z,9.7
2019-02-09T13:41:03.321Z,7.2
2019-02-09T13:42:03.819Z,7.2
2019-02-09T13:43:03.466Z,8.6
2019-02-09T13:44:02.705Z,9.7
2019-02-09T13:45:03.309Z,7.2
2019-02-09T13:46:03.462Z,8.6
2019-02-09T13:47:03.237Z,6.1
2019-02-09T13:48:02.993Z,9.7
2019-02-09T13:49:03.458Z,7.2
2019-02-09T13:50:03.686Z,7.2
2019-02-09T13:51:03.080Z,11.2
2019-02-09T13:52:03.343Z,9.7
2019-02-09T13:53:03.109Z,9.7
2019-02-09T13:54:03.036Z,8.6
2019-02-09T13:55:04.055Z,8.6
2019-02-09T13:56:03.398Z,12.2
2019-02-09T13:57:03.535Z,9.7
2019-02-09T13:58:03.593Z,9.7
2019-02-09T13:59:03.316Z,6.1
2019-02-09T14:00:03.789Z,6.1
2019-02-09T14:01:03.967Z,6.1
2019-02-09T14:02:03.936Z,8.6
2019-02-09T14:03:03.739Z,11.2
2019-02-09T14:04:03.326Z,7.2
2019-02-09T14:05:03.836Z,9.7
2019-02-09T14:06:08.844Z,9.7
2019-02-09T14:07:03.639Z,9.7
2019-02-09T14:08:03.596Z,7.2
2019-02-09T14:09:02.401Z,6.1
2019-02-09T14:10:03.265Z,7.2
2019-02-09T14:11:03.287Z,6.1